sensor_id;sensor_type;location;lat;lon;timestamp;P1;durP1;ratioP1;P2;durP2;ratioP2
26319;SDS011;14024;52.226;5.200;2023-05-10T00:01:23;59.53;;;27.42;;
26319;SDS011;14024;52.226;5.200;2023-05-10T00:03:49;61.85;;;28.00;;
26319;SDS011;14024;52.226;5.200;2023-05-10T00:06:15;57.10;;;27.50;;
26319;SDS011;14024;52.226;5.200;2023-05-10T00:08:41;58.15;;;27.23;;
26319;SDS011;14024;52.226;5.200;2023-05-10T00:11:07;57.75;;;26.13;;
26319;SDS011;14024;52.226;5.200;2023-05-10T00:13:33;55.30;;;26.20;;
26319;SDS011;14024;52.226;5.200;2023-05-10T00:15:59;60.50;;;27.15;;
26319;SDS011;14024;52.226;5.200;2023-05-10T00:18:25;60.25;;;26.33;;
26319;SDS011;14024;52.226;5.200;2023-05-10T00:20:51;60.30;;;27.85;;
26319;SDS011;14024;52.226;5.200;2023-05-10T00:23:18;57.20;;;27.58;;
26319;SDS011;14024;52.226;5.200;2023-05-10T00:25:44;60.72;;;27.05;;
26319;SDS011;14024;52.226;5.200;2023-05-10T00:28:10;58.05;;;26.48;;
26319;SDS011;14024;52.226;5.200;2023-05-10T00:30:36;54.58;;;25.95;;
26319;SDS011;14024;52.226;5.200;2023-05-10T00:33:02;58.80;;;27.52;;
26319;SDS011;14024;52.226;5.200;2023-05-10T00:35:28;54.85;;;27.23;;
26319;SDS011;14024;52.226;5.200;2023-05-10T00:37:54;61.70;;;26.23;;
26319;SDS011;14024;52.226;5.200;2023-05-10T00:40:20;57.88;;;26.30;;
26319;SDS011;14024;52.226;5.200;2023-05-10T00:42:46;58.88;;;27.02;;
26319;SDS011;14024;52.226;5.200;2023-05-10T00:45:12;57.10;;;28.13;;
26319;SDS011;14024;52.226;5.200;2023-05-10T00:47:39;62.88;;;27.73;;
26319;SDS011;14024;52.226;5.200;2023-05-10T00:50:05;61.85;;;28.33;;
26319;SDS011;14024;52.226;5.200;2023-05-10T00:52:34;58.55;;;28.73;;
26319;SDS011;14024;52.226;5.200;2023-05-10T00:55:00;63.42;;;28.77;;
26319;SDS011;14024;52.226;5.200;2023-05-10T00:57:26;65.53;;;30.90;;
26319;SDS011;14024;52.226;5.200;2023-05-10T00:59:52;67.53;;;29.08;;
26319;SDS011;14024;52.226;5.200;2023-05-10T01:02:18;72.68;;;31.90;;
26319;SDS011;14024;52.226;5.200;2023-05-10T01:04:44;64.65;;;29.40;;
26319;SDS011;14024;52.226;5.200;2023-05-10T01:07:11;64.35;;;30.23;;
26319;SDS011;14024;52.226;5.200;2023-05-10T01:09:37;72.35;;;32.08;;
26319;SDS011;14024;52.226;5.200;2023-05-10T01:12:03;71.72;;;30.77;;
26319;SDS011;14024;52.226;5.200;2023-05-10T01:14:31;76.85;;;33.70;;
26319;SDS011;14024;52.226;5.200;2023-05-10T01:16:57;73.60;;;33.25;;
26319;SDS011;14024;52.226;5.200;2023-05-10T01:19:24;70.00;;;32.88;;
26319;SDS011;14024;52.226;5.200;2023-05-10T01:24:38;83.13;;;36.47;;
26319;SDS011;14024;52.226;5.200;2023-05-10T01:35:17;81.35;;;37.67;;
26319;SDS011;14024;52.226;5.200;2023-05-10T01:40:24;88.03;;;41.75;;
26319;SDS011;14024;52.226;5.200;2023-05-10T01:42:53;78.47;;;39.03;;
26319;SDS011;14024;52.226;5.200;2023-05-10T01:45:23;85.15;;;39.88;;
26319;SDS011;14024;52.226;5.200;2023-05-10T01:47:53;77.35;;;38.25;;
26319;SDS011;14024;52.226;5.200;2023-05-10T01:50:22;85.75;;;41.45;;
26319;SDS011;14024;52.226;5.200;2023-05-10T01:52:53;85.93;;;39.40;;
26319;SDS011;14024;52.226;5.200;2023-05-10T01:55:20;81.50;;;39.63;;
26319;SDS011;14024;52.226;5.200;2023-05-10T01:57:47;90.57;;;39.35;;
26319;SDS011;14024;52.226;5.200;2023-05-10T02:00:14;90.53;;;40.63;;
26319;SDS011;14024;52.226;5.200;2023-05-10T02:02:44;91.35;;;40.20;;
26319;SDS011;14024;52.226;5.200;2023-05-10T02:05:11;96.07;;;41.28;;
26319;SDS011;14024;52.226;5.200;2023-05-10T02:07:38;91.28;;;40.17;;
26319;SDS011;14024;52.226;5.200;2023-05-10T02:10:05;93.57;;;40.25;;
26319;SDS011;14024;52.226;5.200;2023-05-10T02:12:34;96.18;;;42.50;;
26319;SDS011;14024;52.226;5.200;2023-05-10T02:15:01;105.07;;;41.67;;
26319;SDS011;14024;52.226;5.200;2023-05-10T02:17:28;98.85;;;42.63;;
26319;SDS011;14024;52.226;5.200;2023-05-10T02:19:54;103.28;;;43.50;;
26319;SDS011;14024;52.226;5.200;2023-05-10T02:22:21;94.47;;;41.00;;
26319;SDS011;14024;52.226;5.200;2023-05-10T02:24:48;98.35;;;42.03;;
26319;SDS011;14024;52.226;5.200;2023-05-10T02:27:15;85.43;;;40.50;;
26319;SDS011;14024;52.226;5.200;2023-05-10T02:29:41;96.53;;;42.58;;
26319;SDS011;14024;52.226;5.200;2023-05-10T02:32:08;91.00;;;41.95;;
26319;SDS011;14024;52.226;5.200;2023-05-10T02:34:35;93.40;;;40.33;;
26319;SDS011;14024;52.226;5.200;2023-05-10T02:37:02;85.30;;;39.85;;
26319;SDS011;14024;52.226;5.200;2023-05-10T02:39:28;91.05;;;39.10;;
26319;SDS011;14024;52.226;5.200;2023-05-10T02:41:55;90.30;;;40.97;;
26319;SDS011;14024;52.226;5.200;2023-05-10T02:44:22;93.85;;;42.00;;
26319;SDS011;14024;52.226;5.200;2023-05-10T02:46:49;94.40;;;42.75;;
26319;SDS011;14024;52.226;5.200;2023-05-10T02:49:15;91.45;;;39.55;;
26319;SDS011;14024;52.226;5.200;2023-05-10T02:51:44;93.93;;;40.63;;
26319;SDS011;14024;52.226;5.200;2023-05-10T02:54:15;98.75;;;39.08;;
26319;SDS011;14024;52.226;5.200;2023-05-10T02:56:47;99.15;;;39.50;;
26319;SDS011;14024;52.226;5.200;2023-05-10T02:59:13;94.47;;;41.17;;
26319;SDS011;14024;52.226;5.200;2023-05-10T03:01:39;102.50;;;43.17;;
26319;SDS011;14024;52.226;5.200;2023-05-10T03:04:05;105.93;;;43.05;;
26319;SDS011;14024;52.226;5.200;2023-05-10T03:06:32;108.38;;;40.10;;
26319;SDS011;14024;52.226;5.200;2023-05-10T03:08:58;107.38;;;42.85;;
26319;SDS011;14024;52.226;5.200;2023-05-10T03:13:56;111.15;;;43.25;;
26319;SDS011;14024;52.226;5.200;2023-05-10T03:19:01;120.57;;;43.13;;
26319;SDS011;14024;52.226;5.200;2023-05-10T03:21:28;121.35;;;43.60;;
26319;SDS011;14024;52.226;5.200;2023-05-10T03:26:24;146.88;;;45.17;;
26319;SDS011;14024;52.226;5.200;2023-05-10T03:28:51;136.43;;;44.35;;
26319;SDS011;14024;52.226;5.200;2023-05-10T03:31:18;129.82;;;44.95;;
26319;SDS011;14024;52.226;5.200;2023-05-10T03:33:47;146.55;;;45.05;;
26319;SDS011;14024;52.226;5.200;2023-05-10T03:36:13;137.70;;;45.25;;
26319;SDS011;14024;52.226;5.200;2023-05-10T03:38:39;124.32;;;41.53;;
26319;SDS011;14024;52.226;5.200;2023-05-10T03:41:05;122.13;;;40.42;;
26319;SDS011;14024;52.226;5.200;2023-05-10T03:43:31;104.28;;;35.70;;
26319;SDS011;14024;52.226;5.200;2023-05-10T03:45:57;122.30;;;41.33;;
26319;SDS011;14024;52.226;5.200;2023-05-10T03:48:23;121.93;;;39.63;;
26319;SDS011;14024;52.226;5.200;2023-05-10T03:50:49;118.00;;;39.03;;
26319;SDS011;14024;52.226;5.200;2023-05-10T03:53:15;122.55;;;40.22;;
26319;SDS011;14024;52.226;5.200;2023-05-10T03:55:41;127.13;;;42.20;;
26319;SDS011;14024;52.226;5.200;2023-05-10T03:58:10;120.20;;;37.40;;
26319;SDS011;14024;52.226;5.200;2023-05-10T04:00:36;112.43;;;36.90;;
26319;SDS011;14024;52.226;5.200;2023-05-10T04:03:02;125.53;;;39.80;;
26319;SDS011;14024;52.226;5.200;2023-05-10T04:05:28;98.40;;;33.67;;
26319;SDS011;14024;52.226;5.200;2023-05-10T04:07:54;98.05;;;33.78;;
26319;SDS011;14024;52.226;5.200;2023-05-10T04:10:20;79.85;;;30.63;;
26319;SDS011;14024;52.226;5.200;2023-05-10T04:12:46;86.40;;;32.40;;
26319;SDS011;14024;52.226;5.200;2023-05-10T04:15:12;88.90;;;33.25;;
26319;SDS011;14024;52.226;5.200;2023-05-10T04:17:38;87.60;;;33.63;;
26319;SDS011;14024;52.226;5.200;2023-05-10T04:20:04;84.18;;;36.75;;
26319;SDS011;14024;52.226;5.200;2023-05-10T04:22:31;93.30;;;35.88;;
26319;SDS011;14024;52.226;5.200;2023-05-10T04:24:57;104.20;;;37.72;;
26319;SDS011;14024;52.226;5.200;2023-05-10T04:27:23;130.60;;;43.40;;
26319;SDS011;14024;52.226;5.200;2023-05-10T04:29:49;111.18;;;40.00;;
26319;SDS011;14024;52.226;5.200;2023-05-10T04:32:17;114.93;;;38.75;;
26319;SDS011;14024;52.226;5.200;2023-05-10T04:34:44;115.80;;;37.42;;
26319;SDS011;14024;52.226;5.200;2023-05-10T04:37:10;109.63;;;35.28;;
26319;SDS011;14024;52.226;5.200;2023-05-10T04:39:36;106.68;;;38.80;;
26319;SDS011;14024;52.226;5.200;2023-05-10T04:42:02;108.57;;;39.72;;
26319;SDS011;14024;52.226;5.200;2023-05-10T04:44:34;107.63;;;35.05;;
26319;SDS011;14024;52.226;5.200;2023-05-10T04:47:00;119.60;;;38.17;;
26319;SDS011;14024;52.226;5.200;2023-05-10T04:49:27;104.82;;;36.28;;
26319;SDS011;14024;52.226;5.200;2023-05-10T04:51:53;116.57;;;36.83;;
26319;SDS011;14024;52.226;5.200;2023-05-10T04:54:19;112.45;;;38.85;;
26319;SDS011;14024;52.226;5.200;2023-05-10T04:56:45;111.80;;;40.03;;
26319;SDS011;14024;52.226;5.200;2023-05-10T04:59:11;99.25;;;36.67;;
26319;SDS011;14024;52.226;5.200;2023-05-10T05:01:37;108.28;;;38.55;;
26319;SDS011;14024;52.226;5.200;2023-05-10T05:04:03;95.05;;;38.70;;
26319;SDS011;14024;52.226;5.200;2023-05-10T05:06:31;92.03;;;36.05;;
26319;SDS011;14024;52.226;5.200;2023-05-10T05:08:57;86.00;;;34.42;;
26319;SDS011;14024;52.226;5.200;2023-05-10T05:11:23;86.40;;;35.85;;
26319;SDS011;14024;52.226;5.200;2023-05-10T05:13:49;96.88;;;38.55;;
26319;SDS011;14024;52.226;5.200;2023-05-10T05:16:16;87.20;;;34.42;;
26319;SDS011;14024;52.226;5.200;2023-05-10T05:18:43;95.22;;;35.03;;
26319;SDS011;14024;52.226;5.200;2023-05-10T05:21:15;89.32;;;29.85;;
26319;SDS011;14024;52.226;5.200;2023-05-10T05:23:42;80.80;;;29.27;;
26319;SDS011;14024;52.226;5.200;2023-05-10T05:26:08;80.82;;;27.08;;
26319;SDS011;14024;52.226;5.200;2023-05-10T05:28:34;81.32;;;27.65;;
26319;SDS011;14024;52.226;5.200;2023-05-10T05:31:02;78.47;;;27.23;;
26319;SDS011;14024;52.226;5.200;2023-05-10T05:33:28;76.93;;;27.33;;
26319;SDS011;14024;52.226;5.200;2023-05-10T05:35:54;65.45;;;24.75;;
26319;SDS011;14024;52.226;5.200;2023-05-10T05:38:21;60.08;;;23.50;;
26319;SDS011;14024;52.226;5.200;2023-05-10T05:40:47;66.15;;;23.42;;
26319;SDS011;14024;52.226;5.200;2023-05-10T05:43:13;57.38;;;24.52;;
26319;SDS011;14024;52.226;5.200;2023-05-10T05:45:39;65.63;;;23.75;;
26319;SDS011;14024;52.226;5.200;2023-05-10T05:48:05;55.30;;;22.75;;
26319;SDS011;14024;52.226;5.200;2023-05-10T05:50:31;56.70;;;23.20;;
26319;SDS011;14024;52.226;5.200;2023-05-10T05:52:57;64.82;;;25.50;;
26319;SDS011;14024;52.226;5.200;2023-05-10T05:55:23;64.45;;;23.80;;
26319;SDS011;14024;52.226;5.200;2023-05-10T05:57:50;62.10;;;24.55;;
26319;SDS011;14024;52.226;5.200;2023-05-10T06:00:16;60.22;;;23.73;;
26319;SDS011;14024;52.226;5.200;2023-05-10T06:02:43;51.92;;;20.25;;
26319;SDS011;14024;52.226;5.200;2023-05-10T06:05:09;46.13;;;19.15;;
26319;SDS011;14024;52.226;5.200;2023-05-10T06:07:35;46.85;;;18.42;;
26319;SDS011;14024;52.226;5.200;2023-05-10T06:10:01;52.25;;;18.92;;
26319;SDS011;14024;52.226;5.200;2023-05-10T06:12:28;47.95;;;19.17;;
26319;SDS011;14024;52.226;5.200;2023-05-10T06:14:54;48.95;;;19.90;;
26319;SDS011;14024;52.226;5.200;2023-05-10T06:17:20;47.72;;;19.40;;
26319;SDS011;14024;52.226;5.200;2023-05-10T06:19:46;57.75;;;21.52;;
26319;SDS011;14024;52.226;5.200;2023-05-10T06:22:12;58.92;;;22.13;;
26319;SDS011;14024;52.226;5.200;2023-05-10T06:24:38;62.45;;;23.27;;
26319;SDS011;14024;52.226;5.200;2023-05-10T06:27:05;61.15;;;23.42;;
26319;SDS011;14024;52.226;5.200;2023-05-10T06:29:32;64.57;;;21.98;;
26319;SDS011;14024;52.226;5.200;2023-05-10T06:31:58;57.65;;;21.05;;
26319;SDS011;14024;52.226;5.200;2023-05-10T06:34:24;46.20;;;19.40;;
26319;SDS011;14024;52.226;5.200;2023-05-10T06:36:50;61.83;;;21.40;;
26319;SDS011;14024;52.226;5.200;2023-05-10T06:39:16;53.10;;;20.63;;
26319;SDS011;14024;52.226;5.200;2023-05-10T06:41:42;51.80;;;19.98;;
26319;SDS011;14024;52.226;5.200;2023-05-10T06:44:08;57.17;;;20.63;;
26319;SDS011;14024;52.226;5.200;2023-05-10T06:46:34;51.70;;;21.20;;
26319;SDS011;14024;52.226;5.200;2023-05-10T06:49:01;53.05;;;20.80;;
26319;SDS011;14024;52.226;5.200;2023-05-10T06:51:27;57.97;;;21.75;;
26319;SDS011;14024;52.226;5.200;2023-05-10T06:53:53;66.18;;;28.08;;
26319;SDS011;14024;52.226;5.200;2023-05-10T06:56:19;58.28;;;24.05;;
26319;SDS011;14024;52.226;5.200;2023-05-10T06:58:46;53.65;;;20.38;;
26319;SDS011;14024;52.226;5.200;2023-05-10T07:01:12;59.15;;;20.08;;
26319;SDS011;14024;52.226;5.200;2023-05-10T07:03:38;52.10;;;19.75;;
26319;SDS011;14024;52.226;5.200;2023-05-10T07:06:06;48.13;;;19.40;;
26319;SDS011;14024;52.226;5.200;2023-05-10T07:08:35;49.45;;;18.50;;
26319;SDS011;14024;52.226;5.200;2023-05-10T07:11:03;45.55;;;18.23;;
26319;SDS011;14024;52.226;5.200;2023-05-10T07:13:30;40.72;;;17.88;;
26319;SDS011;14024;52.226;5.200;2023-05-10T07:15:56;41.00;;;19.45;;
26319;SDS011;14024;52.226;5.200;2023-05-10T07:18:23;40.10;;;17.58;;
26319;SDS011;14024;52.226;5.200;2023-05-10T07:20:49;38.55;;;17.90;;
26319;SDS011;14024;52.226;5.200;2023-05-10T07:23:15;43.72;;;18.15;;
26319;SDS011;14024;52.226;5.200;2023-05-10T07:25:44;42.58;;;18.67;;
26319;SDS011;14024;52.226;5.200;2023-05-10T07:28:10;42.60;;;18.88;;
26319;SDS011;14024;52.226;5.200;2023-05-10T07:30:36;38.80;;;18.20;;
26319;SDS011;14024;52.226;5.200;2023-05-10T07:33:02;44.40;;;17.90;;
26319;SDS011;14024;52.226;5.200;2023-05-10T07:35:28;37.72;;;16.77;;
26319;SDS011;14024;52.226;5.200;2023-05-10T07:37:54;35.53;;;17.10;;
26319;SDS011;14024;52.226;5.200;2023-05-10T07:40:21;42.35;;;17.63;;
26319;SDS011;14024;52.226;5.200;2023-05-10T07:42:47;40.60;;;17.30;;
26319;SDS011;14024;52.226;5.200;2023-05-10T07:45:13;43.72;;;18.73;;
26319;SDS011;14024;52.226;5.200;2023-05-10T07:47:39;43.88;;;17.80;;
26319;SDS011;14024;52.226;5.200;2023-05-10T07:50:05;36.65;;;17.65;;
26319;SDS011;14024;52.226;5.200;2023-05-10T07:52:32;40.92;;;17.15;;
26319;SDS011;14024;52.226;5.200;2023-05-10T07:54:58;40.97;;;18.70;;
26319;SDS011;14024;52.226;5.200;2023-05-10T07:57:24;38.65;;;16.88;;
26319;SDS011;14024;52.226;5.200;2023-05-10T07:59:50;40.47;;;17.52;;
26319;SDS011;14024;52.226;5.200;2023-05-10T08:02:16;37.50;;;17.52;;
26319;SDS011;14024;52.226;5.200;2023-05-10T08:04:42;37.75;;;17.90;;
26319;SDS011;14024;52.226;5.200;2023-05-10T08:07:08;44.65;;;17.80;;
26319;SDS011;14024;52.226;5.200;2023-05-10T08:09:35;38.30;;;18.38;;
26319;SDS011;14024;52.226;5.200;2023-05-10T08:12:01;35.00;;;17.92;;
26319;SDS011;14024;52.226;5.200;2023-05-10T08:14:28;32.45;;;16.30;;
26319;SDS011;14024;52.226;5.200;2023-05-10T08:16:55;35.78;;;17.75;;
26319;SDS011;14024;52.226;5.200;2023-05-10T08:19:21;34.13;;;15.02;;
26319;SDS011;14024;52.226;5.200;2023-05-10T08:21:47;31.45;;;15.07;;
26319;SDS011;14024;52.226;5.200;2023-05-10T08:24:13;31.83;;;13.52;;
26319;SDS011;14024;52.226;5.200;2023-05-10T08:26:40;28.58;;;14.90;;
26319;SDS011;14024;52.226;5.200;2023-05-10T08:29:05;35.28;;;13.13;;
26319;SDS011;14024;52.226;5.200;2023-05-10T08:31:31;27.60;;;12.77;;
26319;SDS011;14024;52.226;5.200;2023-05-10T08:33:57;24.67;;;12.07;;
26319;SDS011;14024;52.226;5.200;2023-05-10T08:36:23;24.67;;;12.88;;
26319;SDS011;14024;52.226;5.200;2023-05-10T08:38:50;22.20;;;10.32;;
26319;SDS011;14024;52.226;5.200;2023-05-10T08:41:18;23.20;;;9.55;;
26319;SDS011;14024;52.226;5.200;2023-05-10T08:43:45;19.35;;;9.75;;
26319;SDS011;14024;52.226;5.200;2023-05-10T08:46:14;21.35;;;11.80;;
26319;SDS011;14024;52.226;5.200;2023-05-10T08:48:42;25.88;;;12.77;;
26319;SDS011;14024;52.226;5.200;2023-05-10T08:51:08;26.17;;;12.63;;
26319;SDS011;14024;52.226;5.200;2023-05-10T08:53:35;21.38;;;9.60;;
26319;SDS011;14024;52.226;5.200;2023-05-10T08:56:02;19.88;;;10.25;;
26319;SDS011;14024;52.226;5.200;2023-05-10T08:58:28;24.60;;;12.05;;
26319;SDS011;14024;52.226;5.200;2023-05-10T09:00:54;22.38;;;10.35;;
26319;SDS011;14024;52.226;5.200;2023-05-10T09:03:21;20.60;;;10.60;;
26319;SDS011;14024;52.226;5.200;2023-05-10T09:05:48;21.63;;;11.40;;
26319;SDS011;14024;52.226;5.200;2023-05-10T09:08:14;20.38;;;10.85;;
26319;SDS011;14024;52.226;5.200;2023-05-10T09:10:44;20.63;;;10.27;;
26319;SDS011;14024;52.226;5.200;2023-05-10T09:13:12;24.15;;;10.27;;
26319;SDS011;14024;52.226;5.200;2023-05-10T09:15:40;19.80;;;11.00;;
26319;SDS011;14024;52.226;5.200;2023-05-10T09:18:06;22.23;;;11.63;;
26319;SDS011;14024;52.226;5.200;2023-05-10T09:20:32;21.67;;;10.48;;
26319;SDS011;14024;52.226;5.200;2023-05-10T09:22:58;21.95;;;11.50;;
26319;SDS011;14024;52.226;5.200;2023-05-10T09:25:24;17.85;;;10.25;;
26319;SDS011;14024;52.226;5.200;2023-05-10T09:27:50;18.50;;;9.52;;
26319;SDS011;14024;52.226;5.200;2023-05-10T09:30:24;17.83;;;10.00;;
26319;SDS011;14024;52.226;5.200;2023-05-10T09:32:51;20.25;;;10.93;;
26319;SDS011;14024;52.226;5.200;2023-05-10T09:35:18;21.92;;;10.80;;
26319;SDS011;14024;52.226;5.200;2023-05-10T09:37:46;21.05;;;10.75;;
26319;SDS011;14024;52.226;5.200;2023-05-10T09:40:16;23.17;;;11.38;;
26319;SDS011;14024;52.226;5.200;2023-05-10T09:42:42;23.17;;;10.27;;
26319;SDS011;14024;52.226;5.200;2023-05-10T09:45:15;18.88;;;8.55;;
26319;SDS011;14024;52.226;5.200;2023-05-10T09:47:41;15.65;;;8.05;;
26319;SDS011;14024;52.226;5.200;2023-05-10T09:50:08;15.27;;;7.90;;
26319;SDS011;14024;52.226;5.200;2023-05-10T09:52:50;15.07;;;8.32;;
26319;SDS011;14024;52.226;5.200;2023-05-10T09:55:17;14.25;;;8.05;;
26319;SDS011;14024;52.226;5.200;2023-05-10T09:57:44;14.07;;;8.02;;
26319;SDS011;14024;52.226;5.200;2023-05-10T10:00:13;15.88;;;8.20;;
26319;SDS011;14024;52.226;5.200;2023-05-10T10:02:41;12.93;;;6.82;;
26319;SDS011;14024;52.226;5.200;2023-05-10T10:05:07;14.75;;;7.65;;
26319;SDS011;14024;52.226;5.200;2023-05-10T10:07:33;16.05;;;8.15;;
26319;SDS011;14024;52.226;5.200;2023-05-10T10:10:00;15.93;;;8.05;;
26319;SDS011;14024;52.226;5.200;2023-05-10T10:12:26;13.93;;;8.05;;
26319;SDS011;14024;52.226;5.200;2023-05-10T10:14:53;12.90;;;7.55;;
26319;SDS011;14024;52.226;5.200;2023-05-10T10:17:19;16.52;;;7.57;;
26319;SDS011;14024;52.226;5.200;2023-05-10T10:19:45;11.90;;;7.05;;
26319;SDS011;14024;52.226;5.200;2023-05-10T10:22:12;11.57;;;6.63;;
26319;SDS011;14024;52.226;5.200;2023-05-10T10:24:38;12.73;;;6.60;;
26319;SDS011;14024;52.226;5.200;2023-05-10T10:27:28;13.02;;;7.22;;
26319;SDS011;14024;52.226;5.200;2023-05-10T10:30:00;13.52;;;7.30;;
26319;SDS011;14024;52.226;5.200;2023-05-10T10:32:30;9.65;;;5.72;;
26319;SDS011;14024;52.226;5.200;2023-05-10T10:34:59;8.68;;;5.38;;
26319;SDS011;14024;52.226;5.200;2023-05-10T10:37:40;10.10;;;6.00;;
26319;SDS011;14024;52.226;5.200;2023-05-10T10:40:22;10.38;;;6.03;;
26319;SDS011;14024;52.226;5.200;2023-05-10T10:42:48;12.85;;;6.55;;
26319;SDS011;14024;52.226;5.200;2023-05-10T10:45:18;10.63;;;5.90;;
26319;SDS011;14024;52.226;5.200;2023-05-10T10:47:45;9.05;;;5.30;;
26319;SDS011;14024;52.226;5.200;2023-05-10T10:50:11;8.13;;;5.32;;
26319;SDS011;14024;52.226;5.200;2023-05-10T10:52:42;11.98;;;5.20;;
26319;SDS011;14024;52.226;5.200;2023-05-10T10:55:09;9.90;;;5.30;;
26319;SDS011;14024;52.226;5.200;2023-05-10T11:02:45;11.20;;;4.80;;
26319;SDS011;14024;52.226;5.200;2023-05-10T11:07:56;10.35;;;4.85;;
26319;SDS011;14024;52.226;5.200;2023-05-10T11:10:22;16.50;;;6.03;;
26319;SDS011;14024;52.226;5.200;2023-05-10T11:12:52;9.18;;;5.35;;
26319;SDS011;14024;52.226;5.200;2023-05-10T11:15:19;11.30;;;5.18;;
26319;SDS011;14024;52.226;5.200;2023-05-10T11:17:47;9.02;;;4.97;;
26319;SDS011;14024;52.226;5.200;2023-05-10T11:20:16;13.43;;;5.45;;
26319;SDS011;14024;52.226;5.200;2023-05-10T11:22:55;10.25;;;5.47;;
26319;SDS011;14024;52.226;5.200;2023-05-10T11:27:47;13.02;;;6.38;;
26319;SDS011;14024;52.226;5.200;2023-05-10T11:30:14;12.15;;;6.15;;
26319;SDS011;14024;52.226;5.200;2023-05-10T11:32:40;12.65;;;6.43;;
26319;SDS011;14024;52.226;5.200;2023-05-10T11:35:10;10.63;;;6.20;;
26319;SDS011;14024;52.226;5.200;2023-05-10T11:37:38;10.70;;;5.47;;
26319;SDS011;14024;52.226;5.200;2023-05-10T11:40:07;9.32;;;5.32;;
26319;SDS011;14024;52.226;5.200;2023-05-10T11:42:35;10.57;;;5.68;;
26319;SDS011;14024;52.226;5.200;2023-05-10T11:45:01;12.13;;;5.30;;
26319;SDS011;14024;52.226;5.200;2023-05-10T11:47:27;17.58;;;5.60;;
26319;SDS011;14024;52.226;5.200;2023-05-10T11:49:53;8.40;;;4.63;;
26319;SDS011;14024;52.226;5.200;2023-05-10T11:52:19;10.18;;;4.97;;
26319;SDS011;14024;52.226;5.200;2023-05-10T11:54:54;7.82;;;4.45;;
26319;SDS011;14024;52.226;5.200;2023-05-10T11:57:21;11.25;;;4.60;;
26319;SDS011;14024;52.226;5.200;2023-05-10T11:59:54;8.85;;;4.55;;
26319;SDS011;14024;52.226;5.200;2023-05-10T12:02:20;9.35;;;5.13;;
26319;SDS011;14024;52.226;5.200;2023-05-10T12:04:46;7.03;;;4.55;;
26319;SDS011;14024;52.226;5.200;2023-05-10T12:07:12;9.00;;;4.75;;
26319;SDS011;14024;52.226;5.200;2023-05-10T12:09:43;14.02;;;4.93;;
26319;SDS011;14024;52.226;5.200;2023-05-10T12:12:10;8.77;;;4.78;;
26319;SDS011;14024;52.226;5.200;2023-05-10T12:14:36;8.75;;;4.78;;
26319;SDS011;14024;52.226;5.200;2023-05-10T12:17:02;9.38;;;5.43;;
26319;SDS011;14024;52.226;5.200;2023-05-10T12:19:36;13.50;;;5.95;;
26319;SDS011;14024;52.226;5.200;2023-05-10T12:22:07;8.30;;;5.25;;
26319;SDS011;14024;52.226;5.200;2023-05-10T12:24:38;8.88;;;4.60;;
26319;SDS011;14024;52.226;5.200;2023-05-10T12:27:05;7.13;;;4.60;;
26319;SDS011;14024;52.226;5.200;2023-05-10T12:29:36;10.40;;;4.68;;
26319;SDS011;14024;52.226;5.200;2023-05-10T12:32:07;10.65;;;5.55;;
26319;SDS011;14024;52.226;5.200;2023-05-10T12:34:34;10.32;;;5.22;;
26319;SDS011;14024;52.226;5.200;2023-05-10T12:37:03;11.05;;;5.18;;
26319;SDS011;14024;52.226;5.200;2023-05-10T12:39:43;10.95;;;5.35;;
26319;SDS011;14024;52.226;5.200;2023-05-10T12:42:17;8.07;;;4.78;;
26319;SDS011;14024;52.226;5.200;2023-05-10T12:44:44;9.05;;;5.53;;
26319;SDS011;14024;52.226;5.200;2023-05-10T12:47:18;9.02;;;5.35;;
26319;SDS011;14024;52.226;5.200;2023-05-10T12:49:46;11.55;;;5.93;;
26319;SDS011;14024;52.226;5.200;2023-05-10T12:52:16;12.43;;;5.78;;
26319;SDS011;14024;52.226;5.200;2023-05-10T12:54:45;11.57;;;5.60;;
26319;SDS011;14024;52.226;5.200;2023-05-10T12:57:12;10.20;;;5.07;;
26319;SDS011;14024;52.226;5.200;2023-05-10T12:59:40;11.30;;;5.53;;
26319;SDS011;14024;52.226;5.200;2023-05-10T13:02:07;10.30;;;6.15;;
26319;SDS011;14024;52.226;5.200;2023-05-10T13:04:36;16.45;;;8.60;;
26319;SDS011;14024;52.226;5.200;2023-05-10T13:07:07;18.23;;;9.60;;
26319;SDS011;14024;52.226;5.200;2023-05-10T13:09:37;18.95;;;9.38;;
26319;SDS011;14024;52.226;5.200;2023-05-10T13:12:03;23.30;;;10.25;;
26319;SDS011;14024;52.226;5.200;2023-05-10T13:14:29;25.65;;;12.82;;
26319;SDS011;14024;52.226;5.200;2023-05-10T13:16:55;26.58;;;12.57;;
26319;SDS011;14024;52.226;5.200;2023-05-10T13:19:21;31.88;;;14.25;;
26319;SDS011;14024;52.226;5.200;2023-05-10T13:21:47;30.77;;;14.07;;
26319;SDS011;14024;52.226;5.200;2023-05-10T13:24:13;26.55;;;12.32;;
26319;SDS011;14024;52.226;5.200;2023-05-10T13:26:40;31.42;;;13.75;;
26319;SDS011;14024;52.226;5.200;2023-05-10T13:29:14;28.92;;;14.65;;
26319;SDS011;14024;52.226;5.200;2023-05-10T13:31:43;27.70;;;13.85;;
26319;SDS011;14024;52.226;5.200;2023-05-10T13:34:14;30.77;;;14.43;;
26319;SDS011;14024;52.226;5.200;2023-05-10T13:36:44;28.90;;;14.52;;
26319;SDS011;14024;52.226;5.200;2023-05-10T13:39:25;29.80;;;13.02;;
26319;SDS011;14024;52.226;5.200;2023-05-10T13:42:02;32.85;;;13.88;;
26319;SDS011;14024;52.226;5.200;2023-05-10T13:44:28;28.50;;;13.10;;
26319;SDS011;14024;52.226;5.200;2023-05-10T13:47:17;24.73;;;12.15;;
26319;SDS011;14024;52.226;5.200;2023-05-10T13:49:46;34.30;;;13.52;;
26319;SDS011;14024;52.226;5.200;2023-05-10T13:52:13;30.55;;;12.30;;
26319;SDS011;14024;52.226;5.200;2023-05-10T13:54:42;27.10;;;12.07;;
26319;SDS011;14024;52.226;5.200;2023-05-10T13:57:21;22.35;;;11.02;;
26319;SDS011;14024;52.226;5.200;2023-05-10T13:59:48;21.17;;;10.05;;
26319;SDS011;14024;52.226;5.200;2023-05-10T14:02:18;25.23;;;10.32;;
26319;SDS011;14024;52.226;5.200;2023-05-10T14:04:49;22.65;;;10.70;;
26319;SDS011;14024;52.226;5.200;2023-05-10T14:07:17;18.70;;;9.27;;
26319;SDS011;14024;52.226;5.200;2023-05-10T14:09:49;21.27;;;9.55;;
26319;SDS011;14024;52.226;5.200;2023-05-10T14:12:18;18.75;;;8.93;;
26319;SDS011;14024;52.226;5.200;2023-05-10T14:14:50;19.40;;;8.52;;
26319;SDS011;14024;52.226;5.200;2023-05-10T14:17:16;17.90;;;8.40;;
26319;SDS011;14024;52.226;5.200;2023-05-10T14:19:42;20.10;;;8.73;;
26319;SDS011;14024;52.226;5.200;2023-05-10T14:22:08;20.92;;;9.95;;
26319;SDS011;14024;52.226;5.200;2023-05-10T14:24:38;20.95;;;8.50;;
26319;SDS011;14024;52.226;5.200;2023-05-10T14:27:11;20.52;;;9.75;;
26319;SDS011;14024;52.226;5.200;2023-05-10T14:29:38;20.08;;;10.15;;
26319;SDS011;14024;52.226;5.200;2023-05-10T14:32:04;17.63;;;9.65;;
26319;SDS011;14024;52.226;5.200;2023-05-10T14:34:30;19.08;;;9.63;;
26319;SDS011;14024;52.226;5.200;2023-05-10T14:36:56;20.23;;;9.30;;
26319;SDS011;14024;52.226;5.200;2023-05-10T14:39:22;21.77;;;9.18;;
26319;SDS011;14024;52.226;5.200;2023-05-10T14:41:48;16.63;;;8.48;;
26319;SDS011;14024;52.226;5.200;2023-05-10T14:44:16;19.05;;;9.02;;
26319;SDS011;14024;52.226;5.200;2023-05-10T14:46:42;17.75;;;9.40;;
26319;SDS011;14024;52.226;5.200;2023-05-10T14:49:09;18.75;;;8.18;;
26319;SDS011;14024;52.226;5.200;2023-05-10T14:51:35;14.40;;;8.07;;
26319;SDS011;14024;52.226;5.200;2023-05-10T14:54:04;20.67;;;10.15;;
26319;SDS011;14024;52.226;5.200;2023-05-10T14:56:31;16.20;;;8.98;;